createdAt,value
2022-08-25T00:02:13.731Z,100522.55
2022-08-25T00:04:40.519Z,100520.34
2022-08-25T00:07:09.081Z,100518.33
2022-08-25T00:09:35.757Z,100519.58
2022-08-25T00:12:04.897Z,100514.56
2022-08-25T00:14:34.217Z,100516.48
2022-08-25T00:17:01.575Z,100512.02
2022-08-25T00:19:31.923Z,100513.58
2022-08-25T00:21:59.377Z,100511.58
2022-08-25T00:24:26.609Z,100510.46
2022-08-25T00:26:56.544Z,100508.25
2022-08-25T00:29:25.669Z,100505.48
2022-08-25T00:31:52.997Z,100507.18
2022-08-25T00:34:23.092Z,100508.15
2022-08-25T00:36:53.135Z,100510.09
2022-08-25T00:39:21.917Z,100508.76
2022-08-25T00:41:50.776Z,100504.55
2022-08-25T00:44:19.118Z,100501.27
2022-08-25T00:46:51.646Z,100503.11
2022-08-25T00:49:25.447Z,100506.44
2022-08-25T00:51:59.457Z,100506.76
2022-08-25T00:54:34.527Z,100507.91
2022-08-25T00:57:01.547Z,100504.71
2022-08-25T00:59:28.787Z,100505.54
2022-08-25T01:01:56.268Z,100504.23
2022-08-25T01:04:25.233Z,100502.12
2022-08-25T01:06:52.596Z,100501.32
2022-08-25T01:09:20.062Z,100503.66
2022-08-25T01:11:47.816Z,100509.48
2022-08-25T01:14:18.028Z,100512.13
2022-08-25T01:16:45.216Z,100514.45
2022-08-25T01:19:15.153Z,100518.03
2022-08-25T01:21:48.657Z,100515.25
2022-08-25T01:25:13.959Z,100515.48
2022-08-25T01:27:40.546Z,100511.22
2022-08-25T01:30:07.605Z,100507.52
2022-08-25T01:32:35.076Z,100505.94
2022-08-25T01:35:01.699Z,100504.88
2022-08-25T01:37:28.347Z,100507.61
2022-08-25T01:39:54.927Z,100501.11
2022-08-25T01:43:00.038Z,100499.77
2022-08-25T01:45:27.351Z,100500.10
2022-08-25T01:47:55.636Z,100503.19
2022-08-25T01:50:22.275Z,100502.06
2022-08-25T01:52:55.120Z,100503.60
2022-08-25T01:55:22.986Z,100500.95
2022-08-25T01:57:49.656Z,100498.75
2022-08-25T02:00:19.209Z,100499.90
2022-08-25T02:02:46.286Z,100498.09
2022-08-25T02:05:19.328Z,100497.57
2022-08-25T02:07:49.316Z,100494.98
2022-08-25T02:10:15.957Z,100495.01
2022-08-25T02:12:44.032Z,100492.34
2022-08-25T02:15:11.076Z,100494.35
2022-08-25T02:17:37.815Z,100497.63
2022-08-25T02:20:08.742Z,100500.41
2022-08-25T02:22:35.415Z,100500.23
2022-08-25T02:25:02.237Z,100502.40
2022-08-25T02:27:29.218Z,100494.23
2022-08-25T02:29:56.056Z,100488.05
2022-08-25T02:32:22.856Z,100481.58
2022-08-25T02:34:49.494Z,100476.67
2022-08-25T02:37:16.677Z,100473.64
2022-08-25T02:39:43.176Z,100470.98
2022-08-25T02:42:09.818Z,100475.10
2022-08-25T02:44:37.479Z,100474.30
2022-08-25T02:47:04.421Z,100472.63
2022-08-25T02:49:32.017Z,100470.52
2022-08-25T02:52:00.395Z,100469.52
2022-08-25T02:54:28.658Z,100469.64
2022-08-25T02:56:55.297Z,100467.63
2022-08-25T02:59:22.436Z,100466.80
2022-08-25T03:01:49.276Z,100465.79
2022-08-25T03:04:17.336Z,100465.13
2022-08-25T03:06:45.448Z,100467.27
2022-08-25T03:09:12.580Z,100468.11
2022-08-25T03:11:39.515Z,100463.39
2022-08-25T03:14:08.917Z,100460.88
2022-08-25T03:16:35.866Z,100462.61
2022-08-25T03:19:04.355Z,100461.30
2022-08-25T03:21:38.056Z,100463.40
2022-08-25T03:24:06.836Z,100462.73
2022-08-25T03:26:51.789Z,100459.73
2022-08-25T03:29:18.555Z,100466.09
2022-08-25T03:31:45.457Z,100466.95
2022-08-25T03:34:16.501Z,100468.66
2022-08-25T03:36:44.716Z,100466.02
2022-08-25T03:39:11.876Z,100466.50
2022-08-25T03:41:38.896Z,100466.89
2022-08-25T03:44:06.875Z,100464.17
2022-08-25T03:46:37.158Z,100469.71
2022-08-25T03:49:05.406Z,100467.23
2022-08-25T03:51:37.832Z,100463.49
2022-08-25T03:54:05.928Z,100467.29
2022-08-25T03:56:32.855Z,100464.98
2022-08-25T03:59:00.415Z,100467.42
2022-08-25T04:01:27.315Z,100469.61
2022-08-25T04:03:54.615Z,100469.20
2022-08-25T04:06:23.184Z,100468.46
2022-08-25T04:08:52.387Z,100471.95
2022-08-25T04:11:21.069Z,100479.11
2022-08-25T04:13:48.855Z,100477.08
2022-08-25T04:16:19.894Z,100476.43
2022-08-25T04:18:47.663Z,100468.50
2022-08-25T04:21:14.798Z,100477.13
2022-08-25T04:23:44.092Z,100474.38
2022-08-25T04:26:19.651Z,100480.20
2022-08-25T04:28:47.306Z,100478.57
2022-08-25T04:31:15.494Z,100481.42
2022-08-25T04:33:42.856Z,100481.88
2022-08-25T04:36:13.386Z,100478.75
2022-08-25T04:38:42.420Z,100476.58
2022-08-25T04:41:10.978Z,100476.17
2022-08-25T04:43:38.901Z,100478.24
2022-08-25T04:46:12.139Z,100481.66
2022-08-25T04:48:40.061Z,100489.02
2022-08-25T04:51:07.961Z,100488.67
2022-08-25T04:53:34.517Z,100487.71
2022-08-25T04:56:03.822Z,100483.13
2022-08-25T04:58:31.232Z,100484.56
2022-08-25T05:01:06.386Z,100482.56
2022-08-25T05:03:33.579Z,100482.42
2022-08-25T05:06:00.956Z,100480.08
2022-08-25T05:08:28.431Z,100483.98
2022-08-25T05:10:56.712Z,100482.27
2022-08-25T05:13:26.639Z,100476.62
2022-08-25T05:16:02.590Z,100478.75
2022-08-25T05:18:31.663Z,100475.85
2022-08-25T05:21:03.311Z,100471.55
2022-08-25T05:23:30.991Z,100475.48
2022-08-25T05:26:06.529Z,100475.71
2022-08-25T05:28:34.392Z,100474.77
2022-08-25T05:31:02.560Z,100473.67
2022-08-25T05:33:30.588Z,100472.36
2022-08-25T05:35:59.032Z,100469.08
2022-08-25T05:38:25.670Z,100470.17
2022-08-25T05:41:15.339Z,100469.60
2022-08-25T05:43:43.584Z,100467.35
2022-08-25T05:46:10.199Z,100467.64
2022-08-25T05:48:36.739Z,100462.89
2022-08-25T05:51:06.268Z,100460.23
2022-08-25T05:53:34.372Z,100461.55
2022-08-25T05:56:01.739Z,100457.77
2022-08-25T05:58:29.466Z,100462.39
2022-08-25T06:01:18.419Z,100459.20
2022-08-25T06:03:47.349Z,100460.58
2022-08-25T06:06:15.625Z,100462.23
2022-08-25T06:08:45.722Z,100461.90
2022-08-25T06:11:14.113Z,100461.22
2022-08-25T06:13:41.056Z,100459.01
2022-08-25T06:16:07.956Z,100457.63
2022-08-25T06:18:35.237Z,100459.67
2022-08-25T06:21:16.957Z,100462.27
2022-08-25T06:23:44.292Z,100466.95
2022-08-25T06:26:20.593Z,100473.02
2022-08-25T06:28:50.357Z,100474.18
2022-08-25T06:31:17.222Z,100480.16
2022-08-25T06:33:44.705Z,100479.86
2022-08-25T06:36:11.513Z,100488.13
2022-08-25T06:38:38.254Z,100489.14
2022-08-25T06:41:06.834Z,100490.96
2022-08-25T06:43:33.871Z,100489.02
2022-08-25T06:46:15.792Z,100490.14
2022-08-25T06:48:43.239Z,100489.71
2022-08-25T06:51:13.926Z,100490.14
2022-08-25T06:53:42.232Z,100491.98
2022-08-25T06:56:10.013Z,100500.65
2022-08-25T06:58:37.260Z,100499.72
2022-08-25T07:01:15.667Z,100500.64
2022-08-25T07:03:46.908Z,100501.40
2022-08-25T07:06:15.093Z,100497.67
2022-08-25T07:08:46.747Z,100497.24
2022-08-25T07:11:16.397Z,100500.16
2022-08-25T07:13:45.129Z,100496.79
2022-08-25T07:16:12.254Z,100497.94
2022-08-25T07:18:39.158Z,100498.52
2022-08-25T07:21:08.774Z,100499.83
2022-08-25T07:23:37.049Z,100499.05
2022-08-25T07:26:15.686Z,100502.52
2022-08-25T07:28:48.919Z,100498.91
2022-08-25T07:31:17.432Z,100493.92
2022-08-25T07:34:03.677Z,100495.63
2022-08-25T07:36:31.565Z,100497.32
2022-08-25T07:38:58.973Z,100497.67
2022-08-25T07:41:27.213Z,100499.50
2022-08-25T07:43:54.039Z,100504.38
2022-08-25T07:46:20.862Z,100502.90
2022-08-25T07:48:53.235Z,100504.59
2022-08-25T07:51:20.283Z,100506.23
2022-08-25T07:53:46.931Z,100505.67
2022-08-25T07:56:16.035Z,100507.45
2022-08-25T07:58:43.439Z,100502.37
2022-08-25T08:01:22.848Z,100504.54
2022-08-25T08:03:51.540Z,100503.23
2022-08-25T08:06:23.700Z,100502.48
2022-08-25T08:08:54.576Z,100504.42
2022-08-25T08:11:26.875Z,100500.31
2022-08-25T08:13:55.662Z,100504.96
2022-08-25T08:16:24.678Z,100509.77
2022-08-25T08:18:52.075Z,100512.25
2022-08-25T08:21:24.918Z,100513.80
2022-08-25T08:23:58.126Z,100515.63
2022-08-25T08:26:36.266Z,100520.27
2022-08-25T08:29:08.696Z,100513.96
2022-08-25T08:31:36.755Z,100511.99
2022-08-25T08:34:04.003Z,100509.48
2022-08-25T08:36:31.449Z,100511.04
2022-08-25T08:38:58.158Z,100510.54
2022-08-25T08:42:09.576Z,100507.39
2022-08-25T08:44:32.531Z,100511.50
2022-08-25T08:47:44.420Z,100505.67
2022-08-25T08:50:27.677Z,100495.35
2022-08-25T08:53:07.301Z,100496.16
2022-08-25T08:56:01.837Z,100494.68
2022-08-25T08:58:50.006Z,100495.23
2022-08-25T09:01:26.295Z,100489.48
2022-08-25T09:03:59.277Z,100487.70
2022-08-25T09:06:32.166Z,100485.98
2022-08-25T09:09:03.166Z,100490.04
2022-08-25T09:11:42.722Z,100491.31
2022-08-25T09:14:39.704Z,100493.52
2022-08-25T09:17:26.506Z,100489.11
2022-08-25T09:20:28.164Z,100483.50
2022-08-25T09:23:26.849Z,100479.95
2022-08-25T09:26:14.634Z,100481.25
2022-08-25T09:28:51.262Z,100481.05
2022-08-25T09:31:29.904Z,100479.60
2022-08-25T09:33:58.436Z,100476.72
2022-08-25T09:36:25.508Z,100477.92
2022-08-25T09:38:52.558Z,100475.64
2022-08-25T09:41:46.246Z,100476.27
2022-08-25T09:44:19.425Z,100471.39
2022-08-25T09:47:15.646Z,100470.67
2022-08-25T09:49:49.153Z,100466.20
2022-08-25T09:52:42.217Z,100465.08
2022-08-25T09:55:09.272Z,100465.43
2022-08-25T09:57:42.773Z,100461.15
2022-08-25T10:00:14.465Z,100456.98
2022-08-25T10:02:42.480Z,100453.23
2022-08-25T10:05:25.874Z,100453.29
2022-08-25T10:07:58.498Z,100451.58
2022-08-25T10:10:34.648Z,100447.52
2022-08-25T10:13:03.196Z,100435.36
2022-08-25T10:15:36.510Z,100431.84
2022-08-25T10:18:23.337Z,100433.25
2022-08-25T10:21:09.899Z,100430.46
2022-08-25T10:23:43.062Z,100422.63
2022-08-25T10:26:16.722Z,100419.75
2022-08-25T10:29:00.133Z,100416.73
2022-08-25T10:31:41.600Z,100417.83
2022-08-25T10:34:23.872Z,100418.98
2022-08-25T10:37:15.473Z,100420.80
2022-08-25T10:39:58.646Z,100418.63
2022-08-25T10:42:39.166Z,100415.80
2022-08-25T10:45:36.421Z,100405.25
2022-08-25T10:49:01.032Z,100404.02
2022-08-25T10:51:55.193Z,100402.71
2022-08-25T10:54:42.524Z,100398.48
2022-08-25T10:57:32.194Z,100392.30
2022-08-25T11:00:23.259Z,100389.02
2022-08-25T11:03:13.731Z,100380.33
2022-08-25T11:05:46.280Z,100376.48
2022-08-25T11:08:21.432Z,100374.24
2022-08-25T11:11:11.518Z,100367.34
2022-08-25T11:13:58.950Z,100359.14
2022-08-25T11:16:53.585Z,100354.90
2022-08-25T11:19:35.957Z,100356.47
2022-08-25T11:22:15.582Z,100353.62
2022-08-25T11:24:54.920Z,100346.86
2022-08-25T11:27:24.326Z,100350.89
2022-08-25T11:30:13.964Z,100348.05
2022-08-25T11:32:45.240Z,100347.62
2022-08-25T11:35:14.028Z,100347.49
2022-08-25T11:38:02.829Z,100344.38
2022-08-25T11:40:35.333Z,100337.63
2022-08-25T11:43:11.171Z,100337.48
2022-08-25T11:45:46.420Z,100332.48
2022-08-25T11:48:35.961Z,100338.02
2022-08-25T11:51:07.506Z,100333.08
2022-08-25T11:53:39.047Z,100333.86
2022-08-25T11:56:30.135Z,100337.43
2022-08-25T11:58:57.703Z,100333.75
2022-08-25T12:01:40.109Z,100335.95
2022-08-25T12:04:30.936Z,100329.98
2022-08-25T12:07:07.224Z,100326.08
2022-08-25T12:09:54.529Z,100317.60
2022-08-25T12:12:41.614Z,100312.81
2022-08-25T12:15:42.392Z,100310.64
2022-08-25T12:18:16.600Z,100309.02
2022-08-25T12:20:57.861Z,100312.09
2022-08-25T12:23:38.206Z,100307.45
2022-08-25T12:26:20.608Z,100305.33
2022-08-25T12:28:50.542Z,100303.84
2022-08-25T12:31:29.360Z,100306.58
2022-08-25T12:34:26.792Z,100310.11
2022-08-25T12:37:06.472Z,100306.71
2022-08-25T12:39:42.113Z,100303.57
2022-08-25T12:42:28.709Z,100303.10
2022-08-25T12:45:37.858Z,100300.16
2022-08-25T12:48:34.380Z,100294.64
2022-08-25T12:51:04.142Z,100288.45
2022-08-25T12:53:53.766Z,100284.83
2022-08-25T12:56:27.996Z,100278.05
2022-08-25T12:59:21.508Z,100275.77
2022-08-25T13:02:13.231Z,100273.27
2022-08-25T13:05:15.221Z,100278.23
2022-08-25T13:07:51.581Z,100273.42
2022-08-25T13:10:42.493Z,100270.81
2022-08-25T13:13:12.332Z,100268.76
2022-08-25T13:15:44.915Z,100266.40
2022-08-25T13:18:27.108Z,100258.50
2022-08-25T13:21:18.363Z,100265.02
2022-08-25T13:23:50.900Z,100260.96
2022-08-25T13:26:27.210Z,100262.54
2022-08-25T13:28:59.322Z,100263.48
2022-08-25T13:31:30.255Z,100259.45
2022-08-25T13:34:03.514Z,100260.11
2022-08-25T13:37:05.222Z,100259.23
2022-08-25T13:39:54.852Z,100257.98
2022-08-25T13:42:23.997Z,100260.65
2022-08-25T13:44:56.166Z,100257.25
2022-08-25T13:47:43.688Z,100254.98
2022-08-25T13:50:22.726Z,100249.21
2022-08-25T13:52:57.955Z,100250.98
2022-08-25T13:55:38.239Z,100249.24
2022-08-25T13:58:39.255Z,100250.42
2022-08-25T14:01:46.855Z,100250.67
2022-08-25T14:04:29.370Z,100246.02
2022-08-25T14:07:14.220Z,100243.11
2022-08-25T14:09:46.868Z,100235.55
2022-08-25T14:12:38.243Z,100231.66
2022-08-25T14:15:27.512Z,100225.48
2022-08-25T14:18:09.453Z,100221.69
2022-08-25T14:20:53.803Z,100219.83
2022-08-25T14:23:23.906Z,100216.27
2022-08-25T14:25:58.832Z,100221.22
2022-08-25T14:28:32.505Z,100219.38
2022-08-25T14:31:06.956Z,100216.94
2022-08-25T14:33:52.914Z,100215.05
2022-08-25T14:36:20.929Z,100211.89
2022-08-25T14:38:54.760Z,100210.09
2022-08-25T14:41:23.749Z,100210.24
2022-08-25T14:43:50.620Z,100206.77
2022-08-25T14:46:25.352Z,100198.74
2022-08-25T14:48:59.464Z,100196.92
2022-08-25T14:51:29.845Z,100189.11
2022-08-25T14:54:00.716Z,100187.21
2022-08-25T14:56:27.679Z,100183.36
2022-08-25T14:58:56.571Z,100182.98
2022-08-25T15:01:28.707Z,100188.31
2022-08-25T15:04:10.087Z,100186.23
2022-08-25T15:06:41.545Z,100182.87
2022-08-25T15:09:16.455Z,100177.06
2022-08-25T15:11:50.608Z,100176.22
2022-08-25T15:14:19.195Z,100171.98
2022-08-25T15:16:57.402Z,100171.99
2022-08-25T15:19:28.007Z,100171.13
2022-08-25T15:21:57.795Z,100170.73
2022-08-25T15:24:26.218Z,100168.54
2022-08-25T15:26:56.308Z,100172.70
2022-08-25T15:29:26.261Z,100173.70
2022-08-25T15:31:53.305Z,100170.79
2022-08-25T15:34:20.354Z,100168.35
2022-08-25T15:36:48.005Z,100169.92
2022-08-25T15:39:15.772Z,100170.09
2022-08-25T15:41:49.357Z,100169.70
2022-08-25T15:44:16.564Z,100169.23
2022-08-25T15:46:49.688Z,100166.24
2022-08-25T15:49:23.241Z,100162.47
2022-08-25T15:51:54.580Z,100158.86
2022-08-25T15:54:23.354Z,100158.55
2022-08-25T15:56:52.034Z,100153.27
2022-08-25T15:59:21.637Z,100144.08
2022-08-25T16:01:52.908Z,100136.83
2022-08-25T16:04:22.195Z,100126.05
2022-08-25T16:06:52.036Z,100131.23
2022-08-25T16:09:23.117Z,100129.36
2022-08-25T16:11:56.722Z,100138.82
2022-08-25T16:14:27.828Z,100151.27
2022-08-25T16:16:58.242Z,100152.45
2022-08-25T16:19:28.670Z,100153.00
2022-08-25T16:21:55.886Z,100147.31
2022-08-25T16:24:22.742Z,100147.45
2022-08-25T16:26:50.412Z,100148.23
2022-08-25T16:29:18.882Z,100143.55
2022-08-25T16:31:53.302Z,100142.77
2022-08-25T16:34:28.407Z,100134.35
2022-08-25T16:36:55.902Z,100129.23
2022-08-25T16:39:24.015Z,100122.99
2022-08-25T16:41:51.953Z,100124.36
2022-08-25T16:44:19.820Z,100128.32
2022-08-25T16:46:53.730Z,100130.30
2022-08-25T16:49:21.161Z,100134.23
2022-08-25T16:51:56.578Z,100138.50
2022-08-25T16:54:44.562Z,100140.88
2022-08-25T16:57:12.720Z,100136.25
2022-08-25T16:59:39.478Z,100125.08
2022-08-25T17:02:07.103Z,100114.08
2022-08-25T17:04:34.372Z,100122.20
2022-08-25T17:07:01.709Z,100127.42
2022-08-25T17:09:29.658Z,100131.86
2022-08-25T17:11:57.060Z,100130.63
2022-08-25T17:14:25.655Z,100127.71
2022-08-25T17:16:55.774Z,100134.02
2022-08-25T17:19:25.910Z,100141.27
2022-08-25T17:21:54.530Z,100144.48
2022-08-25T17:24:29.649Z,100144.64
2022-08-25T17:26:57.098Z,100143.80
2022-08-25T17:29:24.419Z,100132.39
2022-08-25T17:31:52.910Z,100127.98
2022-08-25T17:34:23.058Z,100133.42
2022-08-25T17:36:50.668Z,100140.16
2022-08-25T17:39:22.047Z,100148.87
2022-08-25T17:41:50.842Z,100152.71
2022-08-25T17:44:19.411Z,100151.05
2022-08-25T17:46:47.898Z,100150.25
2022-08-25T17:49:18.512Z,100153.34
2022-08-25T17:51:45.556Z,100158.19
2022-08-25T17:54:12.910Z,100158.46
2022-08-25T17:56:39.756Z,100148.05
2022-08-25T17:59:06.594Z,100143.77
2022-08-25T18:01:40.273Z,100147.98
2022-08-25T18:04:16.901Z,100155.13
2022-08-25T18:06:45.036Z,100147.75
2022-08-25T18:09:11.644Z,100147.80
2022-08-25T18:11:38.506Z,100148.85
2022-08-25T18:14:06.680Z,100147.72
2022-08-25T18:16:38.131Z,100154.23
2022-08-25T18:19:06.440Z,100163.72
2022-08-25T18:21:36.753Z,100179.42
2022-08-25T18:24:04.463Z,100187.80
2022-08-25T18:26:32.691Z,100180.27
2022-08-25T18:29:00.132Z,100176.77
2022-08-25T18:31:28.318Z,100183.77
2022-08-25T18:33:56.503Z,100184.98
2022-08-25T18:36:23.532Z,100188.01
2022-08-25T18:39:09.205Z,100184.83
2022-08-25T18:41:40.071Z,100181.70
2022-08-25T18:44:08.556Z,100176.16
2022-08-25T18:46:39.318Z,100173.02
2022-08-25T18:49:06.513Z,100165.74
2022-08-25T18:51:33.672Z,100162.23
2022-08-25T18:54:01.562Z,100156.86
2022-08-25T18:56:29.512Z,100157.17
2022-08-25T18:58:57.769Z,100157.64
2022-08-25T19:01:25.617Z,100160.61
2022-08-25T19:03:53.515Z,100158.42
2022-08-25T19:06:21.192Z,100156.86
2022-08-25T19:08:48.731Z,100157.46
2022-08-25T19:11:16.813Z,100155.54
2022-08-25T19:13:44.674Z,100155.69
2022-08-25T19:16:20.192Z,100157.44
2022-08-25T19:18:49.055Z,100157.33
2022-08-25T19:21:22.711Z,100153.09
2022-08-25T19:23:51.272Z,100149.52
2022-08-25T19:26:20.912Z,100147.57
2022-08-25T19:28:49.846Z,100147.55
2022-08-25T19:31:22.340Z,100146.16
2022-08-25T19:33:51.883Z,100145.59
2022-08-25T19:36:23.080Z,100140.79
2022-08-25T19:38:51.843Z,100138.63
2022-08-25T19:41:21.248Z,100138.17
2022-08-25T19:43:56.657Z,100133.95
2022-08-25T19:46:32.883Z,100133.27
2022-08-25T19:49:08.504Z,100130.73
2022-08-25T19:51:44.066Z,100128.61
2022-08-25T19:54:16.496Z,100129.73
2022-08-25T19:56:54.490Z,100132.36
2022-08-25T19:59:25.391Z,100136.83
2022-08-25T20:01:53.725Z,100139.73
2022-08-25T20:04:20.940Z,100149.52
2022-08-25T20:06:51.786Z,100147.40
2022-08-25T20:09:35.708Z,100153.33
2022-08-25T20:12:06.900Z,100150.21
2022-08-25T20:14:34.910Z,100152.73
2022-08-25T20:17:02.601Z,100155.87
2022-08-25T20:19:31.070Z,100159.45
2022-08-25T20:21:59.152Z,100156.41
2022-08-25T20:24:45.353Z,100157.50
2022-08-25T20:27:12.806Z,100162.46
2022-08-25T20:29:40.469Z,100160.17
2022-08-25T20:32:12.336Z,100160.63
2022-08-25T20:34:41.359Z,100152.62
2022-08-25T20:37:09.413Z,100155.10
2022-08-25T20:39:37.286Z,100155.27
2022-08-25T20:42:05.436Z,100157.80
2022-08-25T20:44:39.939Z,100164.70
2022-08-25T20:47:10.544Z,100162.23
2022-08-25T20:49:39.520Z,100153.60
2022-08-25T20:52:07.792Z,100152.73
2022-08-25T20:54:35.011Z,100155.35
2022-08-25T20:57:02.568Z,100146.91
2022-08-25T20:59:29.533Z,100150.30
2022-08-25T21:01:56.920Z,100148.25
2022-08-25T21:04:26.767Z,100149.57
2022-08-25T21:06:53.515Z,100147.45
2022-08-25T21:09:23.441Z,100147.18
2022-08-25T21:11:52.921Z,100146.15
2022-08-25T21:14:20.694Z,100147.84
2022-08-25T21:16:48.644Z,100146.23
2022-08-25T21:19:17.900Z,100147.73
2022-08-25T21:21:59.886Z,100155.86
2022-08-25T21:24:28.051Z,100152.13
2022-08-25T21:26:57.536Z,100144.31
2022-08-25T21:29:25.645Z,100140.79
2022-08-25T21:31:58.257Z,100140.14
2022-08-25T21:34:25.752Z,100137.86
2022-08-25T21:36:57.968Z,100138.80
2022-08-25T21:39:27.594Z,100139.61
2022-08-25T21:41:56.037Z,100139.21
2022-08-25T21:44:23.372Z,100139.30
2022-08-25T21:46:54.268Z,100138.23
2022-08-25T21:49:23.912Z,100130.63
2022-08-25T21:52:00.401Z,100129.25
2022-08-25T21:54:28.699Z,100125.58
2022-08-25T21:57:04.684Z,100125.31
2022-08-25T21:59:33.798Z,100128.02
2022-08-25T22:02:07.563Z,100122.98
2022-08-25T22:04:34.857Z,100119.50
2022-08-25T22:07:02.532Z,100116.91
2022-08-25T22:09:30.391Z,100114.61
2022-08-25T22:11:58.727Z,100111.52
2022-08-25T22:14:26.735Z,100117.96
2022-08-25T22:16:54.476Z,100120.05
2022-08-25T22:19:22.828Z,100118.41
2022-08-25T22:21:50.844Z,100118.09
2022-08-25T22:24:19.031Z,100117.25
2022-08-25T22:26:47.405Z,100118.90
2022-08-25T22:29:20.736Z,100116.29
2022-08-25T22:31:59.313Z,100116.31
2022-08-25T22:34:32.622Z,100112.64
2022-08-25T22:37:03.873Z,100109.83
2022-08-25T22:39:31.721Z,100108.02
2022-08-25T22:42:00.320Z,100103.22
2022-08-25T22:44:26.853Z,100101.04
2022-08-25T22:46:53.801Z,100096.55
2022-08-25T22:49:21.653Z,100095.16
2022-08-25T22:51:49.734Z,100094.52
2022-08-25T22:54:17.991Z,100092.05
2022-08-25T22:56:45.696Z,100089.93
2022-08-25T22:59:13.668Z,100090.63
2022-08-25T23:01:41.911Z,100087.55
2022-08-25T23:04:09.252Z,100087.24
2022-08-25T23:06:37.957Z,100082.93
2022-08-25T23:09:07.651Z,100080.80
2022-08-25T23:11:35.572Z,100077.77
2022-08-25T23:14:09.948Z,100078.35
2022-08-25T23:16:41.963Z,100076.06
2022-08-25T23:19:10.612Z,100076.17
2022-08-25T23:21:56.844Z,100074.87
2022-08-25T23:24:29.382Z,100069.23
2022-08-25T23:27:01.437Z,100074.55
2022-08-25T23:29:29.631Z,100070.92
2022-08-25T23:31:57.433Z,100070.11
2022-08-25T23:34:24.916Z,100070.82
2022-08-25T23:36:52.175Z,100070.86
2022-08-25T23:39:19.252Z,100066.45
2022-08-25T23:41:50.014Z,100065.06
2022-08-25T23:44:18.584Z,100063.02
2022-08-25T23:46:47.475Z,100062.77
2022-08-25T23:49:18.491Z,100061.67
2022-08-25T23:51:50.223Z,100057.61
2022-08-25T23:54:20.352Z,100056.34
2022-08-25T23:56:51.766Z,100056.26
2022-08-25T23:59:24.039Z,100048.83
